Time;durP1;ratioP1;P1;durP2;ratioP2;P2;SDS_P1;SDS_P2;PMS_P1;PMS_P2;Temp;Humidity;BMP_temperature;BMP_pressure;BME280_temperature;BME280_humidity;BME280_pressure;Samples;Min_cycle;Max_cycle;Signal;HPM_P1;HPM_P2
2021/06/20 00:00:12;;;;;;;9.85;8.88;;;28.60;93.40;;;;;;5108511;28;20270;-76
2021/06/20 00:02:40;;;;;;;10.55;8.48;;;28.50;93.40;;;;;;5108137;28;20198;-76
2021/06/20 00:05:09;;;;;;;11.32;8.57;;;28.50;93.40;;;;;;5108212;28;20234;-76
2021/06/20 00:07:36;;;;;;;9.95;8.98;;;28.40;93.50;;;;;;5108352;28;20213;-76
2021/06/20 00:10:04;;;;;;;12.75;8.90;;;28.30;93.60;;;;;;5108500;28;20210;-76
2021/06/20 00:12:30;;;;;;;10.57;8.55;;;28.30;93.60;;;;;;5110318;28;20205;-76
2021/06/20 00:14:58;;;;;;;10.18;9.13;;;28.30;93.70;;;;;;5112797;28;20283;-76
2021/06/20 00:17:24;;;;;;;12.40;9.27;;;28.30;93.70;;;;;;5112380;28;21082;-76
2021/06/20 00:19:52;;;;;;;11.82;8.57;;;28.30;93.70;;;;;;5112576;28;20255;-76
2021/06/20 00:22:19;;;;;;;10.65;8.68;;;28.30;93.70;;;;;;5112445;28;20202;-77
2021/06/20 00:24:45;;;;;;;9.80;8.70;;;28.30;93.60;;;;;;5112005;28;20591;-76
2021/06/20 00:27:12;;;;;;;9.80;8.85;;;28.30;93.60;;;;;;5111322;28;20225;-76
2021/06/20 00:29:39;;;;;;;8.98;8.05;;;28.30;93.60;;;;;;5112247;28;20236;-77
2021/06/20 00:32:06;;;;;;;12.50;8.95;;;28.20;93.60;;;;;;5112523;28;20205;-77
2021/06/20 00:34:32;;;;;;;9.38;8.45;;;28.00;93.70;;;;;;5112030;28;20209;-77
2021/06/20 00:37:00;;;;;;;10.85;9.50;;;28.00;93.80;;;;;;5112385;28;20621;-76
2021/06/20 00:39:27;;;;;;;9.57;8.68;;;28.00;93.90;;;;;;5112278;28;20230;-76
2021/06/20 00:41:53;;;;;;;10.48;9.38;;;28.00;93.90;;;;;;5112334;28;20202;-77
2021/06/20 00:44:21;;;;;;;9.77;8.75;;;28.00;93.90;;;;;;5112257;28;20202;-76
2021/06/20 00:46:47;;;;;;;9.77;8.88;;;28.00;93.90;;;;;;5112180;28;20210;-75
2021/06/20 00:49:14;;;;;;;11.65;8.88;;;27.90;94.10;;;;;;5111977;28;20279;-75
2021/06/20 00:51:41;;;;;;;11.73;8.80;;;27.80;94.10;;;;;;5111733;28;20676;-75
2021/06/20 00:54:09;;;;;;;10.32;9.32;;;27.90;94.20;;;;;;5111993;28;20680;-75
2021/06/20 00:56:36;;;;;;;10.40;9.43;;;27.80;94.20;;;;;;5111754;28;20377;-75
2021/06/20 00:59:04;;;;;;;9.43;7.97;;;27.90;94.30;;;;;;5111765;28;20287;-75
2021/06/20 01:01:31;;;;;;;9.70;8.43;;;27.90;94.30;;;;;;5111613;28;20232;-75
2021/06/20 01:03:57;;;;;;;9.35;8.55;;;27.80;94.30;;;;;;5111463;28;20250;-74
2021/06/20 01:06:25;;;;;;;12.48;9.02;;;27.90;94.30;;;;;;5110014;28;20714;-75
2021/06/20 01:08:51;;;;;;;10.57;9.23;;;27.90;94.40;;;;;;5110799;28;20198;-75
2021/06/20 01:11:20;;;;;;;10.50;9.40;;;27.80;94.50;;;;;;5110446;28;20703;-75
2021/06/20 01:13:48;;;;;;;10.60;9.55;;;27.80;94.90;;;;;;5110011;28;20660;-75
2021/06/20 01:16:14;;;;;;;9.93;8.90;;;27.70;94.60;;;;;;5110498;28;20287;-74
2021/06/20 01:18:42;;;;;;;10.77;9.50;;;27.70;94.70;;;;;;5110148;28;20226;-74
2021/06/20 01:21:09;;;;;;;11.25;9.65;;;27.60;94.90;;;;;;5110318;28;20210;-74
2021/06/20 01:23:37;;;;;;;13.98;10.52;;;27.60;95.00;;;;;;5109535;28;20206;-76
2021/06/20 01:26:04;;;;;;;11.73;9.57;;;27.50;95.10;;;;;;5110262;28;20276;-79
2021/06/20 01:28:41;;;;;;;13.80;10.18;;;27.50;95.20;;;;;;5109976;28;20686;-76
2021/06/20 01:31:11;;;;;;;10.77;9.80;;;27.30;95.40;;;;;;5110173;28;20222;-76
2021/06/20 01:33:38;;;;;;;12.73;10.93;;;27.30;95.60;;;;;;5109786;28;20603;-76
2021/06/20 01:36:06;;;;;;;11.48;10.27;;;27.40;95.70;;;;;;5110152;28;20209;-77
2021/06/20 01:38:32;;;;;;;12.05;10.80;;;27.40;95.60;;;;;;5110017;28;20230;-77
2021/06/20 01:41:01;;;;;;;11.60;10.25;;;27.30;95.70;;;;;;5110200;28;20199;-76
2021/06/20 01:43:28;;;;;;;11.55;10.35;;;27.30;95.90;;;;;;5110069;28;20231;-76
2021/06/20 01:45:55;;;;;;;10.93;9.93;;;27.20;95.90;;;;;;5119921;28;20205;-75
2021/06/20 01:48:22;;;;;;;11.85;10.75;;;27.10;96.00;;;;;;5130239;28;20664;-75
2021/06/20 01:50:48;;;;;;;13.52;11.20;;;27.00;96.20;;;;;;5130417;28;20209;-76
2021/06/20 01:53:17;;;;;;;12.35;11.30;;;27.00;96.30;;;;;;5130589;27;20266;-75
2021/06/20 01:55:46;;;;;;;11.65;10.60;;;27.00;96.50;;;;;;5130257;27;20209;-75
2021/06/20 01:58:16;;;;;;;11.93;10.93;;;27.00;96.50;;;;;;5130385;28;20244;-75
2021/06/20 02:00:45;;;;;;;11.88;10.75;;;26.90;96.50;;;;;;5130066;28;20229;-76
2021/06/20 02:03:13;;;;;;;11.85;10.65;;;26.90;96.70;;;;;;5130445;27;20205;-75
2021/06/20 02:05:42;;;;;;;11.88;10.90;;;26.90;96.70;;;;;;5127511;27;44952;-76
2021/06/20 02:08:09;;;;;;;11.98;10.70;;;26.90;96.80;;;;;;5131317;27;20255;-76
2021/06/20 02:10:35;;;;;;;12.95;11.07;;;26.90;96.80;;;;;;5131026;27;20213;-76
2021/06/20 02:13:03;;;;;;;13.27;11.40;;;26.90;96.80;;;;;;5131227;27;20579;-75
2021/06/20 02:15:31;;;;;;;12.13;11.02;;;27.00;96.90;;;;;;5130881;27;20698;-75
2021/06/20 02:17:58;;;;;;;12.55;10.90;;;26.90;97.10;;;;;;5131105;27;20286;-76
2021/06/20 02:20:25;;;;;;;14.65;10.88;;;26.90;96.90;;;;;;5130939;27;20274;-75
2021/06/20 02:22:53;;;;;;;12.52;11.32;;;26.90;96.90;;;;;;5130991;27;20205;-75
2021/06/20 02:25:21;;;;;;;11.23;10.23;;;27.00;96.90;;;;;;5130927;27;20270;-75
2021/06/20 02:27:49;;;;;;;12.88;11.73;;;27.00;97.00;;;;;;5130801;27;20205;-75
2021/06/20 02:30:18;;;;;;;12.18;11.07;;;26.90;97.00;;;;;;5130612;27;20201;-75
2021/06/20 02:32:46;;;;;;;14.07;11.65;;;26.90;96.90;;;;;;5130783;27;20272;-75
2021/06/20 02:35:14;;;;;;;12.30;11.23;;;27.00;97.00;;;;;;5129839;27;20237;-75
2021/06/20 02:37:42;;;;;;;13.07;11.38;;;26.90;97.10;;;;;;5130248;27;20258;-75
2021/06/20 02:40:11;;;;;;;11.43;10.50;;;26.80;97.10;;;;;;5130710;27;20236;-75
2021/06/20 02:42:38;;;;;;;12.77;11.65;;;26.80;97.10;;;;;;5129901;27;20298;-75
2021/06/20 02:45:08;;;;;;;12.52;11.27;;;26.80;97.10;;;;;;5130578;27;20262;-75
2021/06/20 02:47:35;;;;;;;12.60;11.38;;;26.80;97.20;;;;;;5130204;27;20209;-75
2021/06/20 02:50:04;;;;;;;12.85;11.38;;;26.80;97.30;;;;;;5130416;27;20217;-75
2021/06/20 02:52:30;;;;;;;12.82;11.00;;;26.80;97.30;;;;;;5130106;27;20201;-75
2021/06/20 02:54:59;;;;;;;11.48;10.52;;;26.80;97.30;;;;;;5130128;27;20553;-76
2021/06/20 02:57:28;;;;;;;12.27;11.25;;;26.90;97.40;;;;;;5130225;27;20201;-77
2021/06/20 02:59:56;;;;;;;18.00;11.63;;;26.80;97.50;;;;;;5129850;27;20783;-76
2021/06/20 03:02:24;;;;;;;13.75;12.35;;;26.70;97.60;;;;;;5130340;27;20202;-75
2021/06/20 03:04:52;;;;;;;11.90;10.82;;;26.70;97.70;;;;;;5129730;27;20290;-75
2021/06/20 03:07:20;;;;;;;12.88;11.63;;;26.70;97.70;;;;;;5129813;27;20807;-75
2021/06/20 03:09:46;;;;;;;13.15;11.85;;;26.70;97.90;;;;;;5129793;27;20544;-75
2021/06/20 03:12:14;;;;;;;13.13;12.02;;;26.70;98.00;;;;;;5130078;27;20206;-75
2021/06/20 03:14:42;;;;;;;13.63;12.32;;;26.70;98.10;;;;;;5129795;27;20206;-77
2021/06/20 03:17:10;;;;;;;13.05;11.73;;;26.70;98.10;;;;;;5130171;27;20297;-77
2021/06/20 03:19:39;;;;;;;13.95;12.32;;;26.70;98.10;;;;;;5129709;27;20225;-74
2021/06/20 03:22:07;;;;;;;13.60;11.63;;;26.60;98.20;;;;;;5129788;27;20614;-74
2021/06/20 03:24:38;;;;;;;13.38;11.93;;;26.60;98.40;;;;;;5129394;27;20221;-74
2021/06/20 03:27:05;;;;;;;13.77;12.30;;;26.60;98.40;;;;;;5129427;27;20659;-74
2021/06/20 03:29:32;;;;;;;13.82;12.60;;;26.60;98.40;;;;;;5129491;27;20259;-74
2021/06/20 03:31:59;;;;;;;15.10;12.75;;;26.60;98.50;;;;;;5129383;27;20731;-74
2021/06/20 03:34:27;;;;;;;14.93;12.65;;;26.60;98.50;;;;;;5129541;27;20266;-76
2021/06/20 03:36:54;;;;;;;13.60;12.05;;;26.60;98.40;;;;;;5129750;27;20257;-77
2021/06/20 03:39:20;;;;;;;13.48;12.15;;;26.60;98.50;;;;;;5129234;27;20236;-76
2021/06/20 03:41:48;;;;;;;14.98;11.82;;;26.60;98.50;;;;;;5129435;27;20201;-76
2021/06/20 03:44:15;;;;;;;14.18;12.52;;;26.60;98.60;;;;;;5129262;27;20262;-76
2021/06/20 03:46:41;;;;;;;14.07;12.73;;;26.60;98.80;;;;;;5129188;27;20546;-76
2021/06/20 03:49:08;;;;;;;13.73;12.43;;;26.60;98.90;;;;;;5129405;27;20205;-76
2021/06/20 03:51:35;;;;;;;13.38;11.98;;;26.70;99.00;;;;;;5129283;27;20205;-76
2021/06/20 03:54:02;;;;;;;13.43;12.13;;;26.70;99.10;;;;;;5129520;27;20266;-76
2021/06/20 03:56:29;;;;;;;12.55;11.35;;;26.70;99.00;;;;;;5129386;27;20209;-76
2021/06/20 03:58:57;;;;;;;12.85;11.55;;;26.70;99.10;;;;;;5129174;28;20290;-75
2021/06/20 04:01:23;;;;;;;13.40;12.20;;;26.70;99.20;;;;;;5129197;28;20216;-75
2021/06/20 04:03:50;;;;;;;13.43;12.38;;;26.70;99.20;;;;;;5128975;27;20205;-75
2021/06/20 04:06:17;;;;;;;13.93;12.80;;;26.70;99.40;;;;;;5129205;28;20224;-75
2021/06/20 04:08:43;;;;;;;14.48;12.98;;;26.70;99.50;;;;;;5129128;27;20209;-76
2021/06/20 04:11:10;;;;;;;14.00;12.68;;;26.70;99.50;;;;;;5129211;28;20201;-77
2021/06/20 04:13:37;;;;;;;13.70;12.27;;;26.70;99.20;;;;;;5129118;27;20258;-76
2021/06/20 04:16:05;;;;;;;17.33;12.68;;;26.70;99.40;;;;;;5129299;28;20294;-77
2021/06/20 04:18:32;;;;;;;13.13;11.80;;;26.70;99.50;;;;;;5129094;27;20262;-76
2021/06/20 04:20:58;;;;;;;13.30;12.00;;;26.70;99.60;;;;;;5128922;28;20219;-74
2021/06/20 04:23:25;;;;;;;13.07;11.32;;;26.70;99.50;;;;;;5129164;27;20210;-76
2021/06/20 04:25:52;;;;;;;13.65;12.35;;;26.80;99.50;;;;;;5128951;27;20225;-77
2021/06/20 04:28:19;;;;;;;13.30;12.23;;;26.80;99.30;;;;;;5128572;28;20341;-77
2021/06/20 04:30:47;;;;;;;13.65;12.50;;;26.80;99.20;;;;;;5128598;28;20770;-76
2021/06/20 04:33:15;;;;;;;13.05;11.95;;;26.80;99.10;;;;;;5128979;28;20216;-76
2021/06/20 04:35:42;;;;;;;13.27;11.98;;;26.80;99.10;;;;;;5128494;27;20247;-76
2021/06/20 04:38:08;;;;;;;13.52;12.40;;;26.90;99.00;;;;;;5128940;28;20205;-74
2021/06/20 04:40:35;;;;;;;13.27;12.15;;;26.90;98.80;;;;;;5128530;28;20229;-73
2021/06/20 04:43:07;;;;;;;13.02;11.82;;;27.00;98.60;;;;;;5128825;28;20202;-73
2021/06/20 04:45:34;;;;;;;13.48;12.18;;;27.00;98.20;;;;;;5128608;28;20197;-75
2021/06/20 04:48:01;;;;;;;13.75;12.40;;;27.10;98.00;;;;;;5128906;27;20262;-75
2021/06/20 04:50:29;;;;;;;14.75;13.18;;;27.10;97.80;;;;;;5128497;28;20262;-75
2021/06/20 04:52:56;;;;;;;13.75;12.43;;;27.20;97.40;;;;;;5128738;27;20232;-75
2021/06/20 04:55:23;;;;;;;13.95;12.57;;;27.20;97.30;;;;;;5128640;28;20210;-75
2021/06/20 04:57:50;;;;;;;14.70;13.32;;;27.30;97.40;;;;;;5129082;27;20198;-75
2021/06/20 05:00:17;;;;;;;14.40;13.18;;;27.30;97.30;;;;;;5132142;27;20737;-75
2021/06/20 05:02:43;;;;;;;14.30;13.20;;;27.30;97.30;;;;;;5132422;27;20201;-75
2021/06/20 05:05:12;;;;;;;14.32;13.02;;;27.30;97.50;;;;;;5131799;27;20719;-75
2021/06/20 05:07:40;;;;;;;14.60;13.30;;;27.40;97.60;;;;;;5132191;27;20338;-75
2021/06/20 05:10:08;;;;;;;14.52;13.18;;;27.40;97.30;;;;;;5131994;27;20620;-74
2021/06/20 05:12:34;;;;;;;15.02;13.55;;;27.40;97.20;;;;;;5132261;27;20228;-75
2021/06/20 05:15:01;;;;;;;14.60;13.43;;;27.40;97.20;;;;;;5132119;27;20288;-74
2021/06/20 05:17:28;;;;;;;15.50;13.85;;;27.50;97.10;;;;;;5132081;27;20250;-74
2021/06/20 05:19:55;;;;;;;14.05;13.00;;;27.50;97.00;;;;;;5131702;27;20226;-74
2021/06/20 05:22:21;;;;;;;14.50;13.27;;;27.50;97.10;;;;;;5132104;27;20569;-75
2021/06/20 05:24:49;;;;;;;14.80;13.60;;;27.50;97.20;;;;;;5131622;27;20225;-75
2021/06/20 05:27:16;;;;;;;15.32;14.02;;;27.50;97.50;;;;;;5132222;27;20201;-75
2021/06/20 05:29:43;;;;;;;15.75;14.45;;;27.50;97.60;;;;;;5131920;27;20242;-74
2021/06/20 05:32:09;;;;;;;14.77;13.35;;;27.50;97.80;;;;;;5132195;27;20202;-74
2021/06/20 05:34:36;;;;;;;14.00;12.88;;;27.50;97.90;;;;;;5131720;27;20347;-74
2021/06/20 05:37:04;;;;;;;14.60;13.50;;;27.50;98.10;;;;;;5131981;27;20255;-75
2021/06/20 05:39:31;;;;;;;15.07;13.85;;;27.50;98.20;;;;;;5132031;27;20284;-75
2021/06/20 05:41:59;;;;;;;15.85;14.35;;;27.50;97.80;;;;;;5131773;27;20202;-75
2021/06/20 05:44:26;;;;;;;15.43;14.07;;;27.50;97.70;;;;;;5131678;27;20201;-76
2021/06/20 05:46:52;;;;;;;13.80;12.65;;;27.60;97.70;;;;;;5131305;27;20226;-76
2021/06/20 05:49:20;;;;;;;15.05;13.48;;;27.60;97.90;;;;;;5130650;27;20266;-77
2021/06/20 05:51:46;;;;;;;16.90;15.35;;;27.60;97.90;;;;;;5130939;27;20616;-76
2021/06/20 05:54:13;;;;;;;15.80;14.35;;;27.60;97.80;;;;;;5131578;27;20225;-76
2021/06/20 05:56:39;;;;;;;15.57;14.35;;;27.60;97.80;;;;;;5131476;27;20250;-76
2021/06/20 05:59:07;;;;;;;15.80;14.50;;;27.70;97.70;;;;;;5131355;27;20221;-76
2021/06/20 06:01:35;;;;;;;14.77;13.40;;;27.70;98.00;;;;;;5131573;27;20206;-76
2021/06/20 06:04:02;;;;;;;15.90;14.48;;;27.80;97.70;;;;;;5131126;27;20241;-73
2021/06/20 06:06:28;;;;;;;16.00;14.50;;;27.80;98.00;;;;;;5131294;27;20193;-73
2021/06/20 06:08:55;;;;;;;15.45;14.00;;;27.80;98.00;;;;;;5130172;27;20614;-73
2021/06/20 06:11:21;;;;;;;17.02;14.60;;;27.80;98.00;;;;;;5130312;27;20246;-73
2021/06/20 06:13:51;;;;;;;16.02;14.63;;;27.90;97.90;;;;;;5131122;27;20317;-73
2021/06/20 06:16:19;;;;;;;15.73;14.38;;;27.90;97.90;;;;;;5131031;27;20205;-75
2021/06/20 06:18:46;;;;;;;14.73;13.63;;;27.90;98.00;;;;;;5131031;27;20258;-75
2021/06/20 06:21:12;;;;;;;15.45;14.15;;;28.00;97.90;;;;;;5130964;27;20226;-75
2021/06/20 06:23:39;;;;;;;15.75;14.35;;;28.00;97.90;;;;;;5130575;27;20202;-75
2021/06/20 06:26:06;;;;;;;15.52;14.10;;;28.10;98.00;;;;;;5130786;27;20209;-73
2021/06/20 06:28:32;;;;;;;15.48;14.00;;;28.00;97.90;;;;;;5130797;27;20206;-74
2021/06/20 06:30:59;;;;;;;15.45;13.82;;;28.10;97.90;;;;;;5127254;27;20190;-75
2021/06/20 06:33:27;;;;;;;14.63;13.52;;;28.10;98.20;;;;;;5120322;27;20197;-74
2021/06/20 06:35:55;;;;;;;15.05;13.80;;;28.20;98.00;;;;;;5120834;27;20212;-74
2021/06/20 06:38:22;;;;;;;14.68;13.38;;;28.20;98.00;;;;;;5109721;28;20281;-76
2021/06/20 06:40:50;;;;;;;14.27;13.07;;;28.20;97.90;;;;;;5109479;28;20274;-72
2021/06/20 06:43:17;;;;;;;14.82;13.32;;;28.30;97.90;;;;;;5109379;28;20194;-73
2021/06/20 06:45:43;;;;;;;14.18;12.93;;;28.30;97.80;;;;;;5109398;28;20198;-73
2021/06/20 06:48:10;;;;;;;14.20;13.00;;;28.40;97.90;;;;;;5109443;28;20243;-74
2021/06/20 06:50:38;;;;;;;15.05;13.52;;;28.50;98.00;;;;;;5109497;28;20263;-75
2021/06/20 06:53:04;;;;;;;14.20;12.80;;;28.50;97.80;;;;;;5109558;28;20270;-74
2021/06/20 06:55:31;;;;;;;15.38;13.90;;;28.50;97.80;;;;;;5109493;28;20194;-74
2021/06/20 06:57:58;;;;;;;16.40;14.80;;;28.60;97.70;;;;;;5109106;28;20194;-74
2021/06/20 07:00:25;;;;;;;14.70;13.60;;;28.60;97.80;;;;;;5109168;28;20221;-74
2021/06/20 07:02:53;;;;;;;15.60;14.10;;;28.70;97.90;;;;;;5109334;27;20753;-77
2021/06/20 07:05:20;;;;;;;15.10;13.70;;;28.70;97.80;;;;;;5106913;28;20650;-74
2021/06/20 07:07:48;;;;;;;14.98;13.60;;;28.80;97.70;;;;;;5107104;28;20641;-74
2021/06/20 07:10:15;;;;;;;15.13;13.65;;;28.80;97.70;;;;;;5107314;28;20263;-74
2021/06/20 07:12:42;;;;;;;14.38;13.07;;;28.90;97.70;;;;;;5107244;28;20242;-74
2021/06/20 07:15:09;;;;;;;14.25;13.10;;;28.90;97.80;;;;;;5107195;28;20213;-74
2021/06/20 07:17:36;;;;;;;14.15;12.77;;;29.00;97.60;;;;;;5107540;28;20241;-74
2021/06/20 07:20:06;;;;;;;15.18;13.05;;;29.00;97.90;;;;;;5107260;28;20302;-75
2021/06/20 07:22:33;;;;;;;14.82;13.40;;;29.10;97.70;;;;;;5107042;27;20212;-74
2021/06/20 07:25:01;;;;;;;14.55;13.10;;;29.20;97.40;;;;;;5118457;27;20217;-74
2021/06/20 07:27:28;;;;;;;13.30;12.20;;;29.20;97.20;;;;;;5126313;27;20686;-74
2021/06/20 07:29:54;;;;;;;13.40;12.25;;;29.30;96.90;;;;;;5127058;27;20293;-74
2021/06/20 07:32:21;;;;;;;12.85;11.85;;;29.30;96.50;;;;;;5127021;27;20712;-74
2021/06/20 07:34:51;;;;;;;14.38;13.13;;;29.30;96.20;;;;;;5127140;27;20235;-74
2021/06/20 07:37:17;;;;;;;13.63;12.60;;;29.40;96.00;;;;;;5127680;27;20233;-75
2021/06/20 07:39:44;;;;;;;12.95;11.95;;;29.40;95.80;;;;;;5126708;27;20302;-74
2021/06/20 07:42:12;;;;;;;12.80;11.68;;;29.40;95.90;;;;;;5126878;27;20652;-75
2021/06/20 07:44:39;;;;;;;13.48;12.52;;;29.40;94.90;;;;;;5123726;27;20194;-75
2021/06/20 07:47:05;;;;;;;13.02;12.02;;;29.40;95.00;;;;;;5116495;27;20266;-75
2021/06/20 07:49:32;;;;;;;13.23;12.23;;;29.40;94.70;;;;;;5114094;27;20242;-73
2021/06/20 07:51:58;;;;;;;15.15;13.57;;;29.40;94.80;;;;;;5116918;27;20198;-76
2021/06/20 07:54:25;;;;;;;14.68;13.27;;;29.40;95.10;;;;;;5118780;27;20640;-73
2021/06/20 07:56:52;;;;;;;15.82;13.90;;;29.40;95.20;;;;;;5126612;27;20295;-73
2021/06/20 07:59:19;;;;;;;14.98;13.50;;;29.40;95.40;;;;;;5127421;27;20229;-74
2021/06/20 08:01:46;;;;;;;14.88;13.73;;;29.40;95.50;;;;;;5124053;28;20852;-73
2021/06/20 08:04:13;;;;;;;15.23;13.85;;;29.40;95.40;;;;;;5106608;28;20205;-73
2021/06/20 08:06:39;;;;;;;15.15;13.80;;;29.40;95.40;;;;;;5106830;28;20248;-74
2021/06/20 08:09:06;;;;;;;16.02;14.38;;;29.40;95.40;;;;;;5106369;28;20252;-74
2021/06/20 08:11:34;;;;;;;19.10;15.25;;;29.50;95.50;;;;;;5106238;28;20710;-73
2021/06/20 08:14:02;;;;;;;17.02;15.55;;;29.50;95.30;;;;;;5106387;28;20267;-74
2021/06/20 08:16:31;;;;;;;16.73;15.15;;;29.50;95.80;;;;;;5105890;28;20206;-75
2021/06/20 08:18:58;;;;;;;16.13;14.73;;;29.50;96.00;;;;;;5106228;28;20585;-74
2021/06/20 08:21:24;;;;;;;16.23;14.82;;;29.60;95.60;;;;;;5106214;28;20230;-74
2021/06/20 08:23:51;;;;;;;16.48;15.15;;;29.60;95.60;;;;;;5106209;28;20761;-74
2021/06/20 08:26:18;;;;;;;15.00;13.85;;;29.60;96.00;;;;;;5106429;28;21106;-74
2021/06/20 08:28:44;;;;;;;17.67;16.15;;;29.60;95.80;;;;;;5106126;28;20198;-74
2021/06/20 08:31:11;;;;;;;17.30;15.68;;;29.60;96.20;;;;;;5106204;28;20205;-74
2021/06/20 08:33:39;;;;;;;15.45;14.27;;;29.70;95.80;;;;;;5108186;28;20267;-74
2021/06/20 08:36:07;;;;;;;17.75;15.98;;;29.70;95.90;;;;;;5110118;28;20238;-74
2021/06/20 08:38:34;;;;;;;18.77;17.15;;;29.70;96.30;;;;;;5110349;28;20594;-74
2021/06/20 08:41:01;;;;;;;19.48;15.90;;;29.70;96.70;;;;;;5110084;28;20322;-75
2021/06/20 08:43:27;;;;;;;17.88;16.38;;;29.80;96.90;;;;;;5110677;28;20206;-74
2021/06/20 08:45:55;;;;;;;18.27;16.67;;;29.90;96.80;;;;;;5110348;28;20630;-74
2021/06/20 08:48:22;;;;;;;17.95;16.52;;;30.00;96.80;;;;;;5110426;27;20724;-74
2021/06/20 08:50:52;;;;;;;18.00;16.33;;;30.00;96.80;;;;;;5109481;28;20687;-74
2021/06/20 08:53:20;;;;;;;15.90;14.63;;;30.10;97.00;;;;;;5109449;28;20691;-74
2021/06/20 08:55:48;;;;;;;18.13;16.38;;;30.10;96.90;;;;;;5109383;28;20571;-74
2021/06/20 08:58:21;;;;;;;16.25;14.80;;;30.10;97.00;;;;;;5109541;28;20289;-74
2021/06/20 09:00:49;;;;;;;23.35;21.27;;;30.10;97.10;;;;;;5109270;28;20628;-74
2021/06/20 09:03:16;;;;;;;14.05;12.73;;;30.00;96.20;;;;;;5109175;28;20205;-74
2021/06/20 09:05:58;;;;;;;13.25;12.02;;;30.00;95.70;;;;;;5108652;28;20230;-74
2021/06/20 09:08:25;;;;;;;14.30;11.80;;;30.10;94.10;;;;;;5109479;28;20276;-72
2021/06/20 09:10:52;;;;;;;13.30;11.85;;;30.10;94.00;;;;;;5111981;27;20232;-73
2021/06/20 09:13:19;;;;;;;11.57;10.48;;;30.20;95.00;;;;;;5118550;27;20198;-73
2021/06/20 09:15:45;;;;;;;12.48;11.38;;;30.20;94.60;;;;;;5126760;27;20201;-74
2021/06/20 09:18:12;;;;;;;11.80;10.82;;;30.20;93.60;;;;;;5123628;27;20657;-75
2021/06/20 09:20:41;;;;;;;11.65;10.65;;;30.30;93.80;;;;;;5108766;28;20598;-76
2021/06/20 09:23:11;;;;;;;12.27;11.25;;;30.20;94.30;;;;;;5109256;28;20197;-75
2021/06/20 09:25:39;;;;;;;10.82;9.85;;;30.30;94.70;;;;;;5112760;27;20286;-73
2021/06/20 09:28:07;;;;;;;15.80;11.68;;;30.30;94.90;;;;;;5116708;27;20198;-75
2021/06/20 09:30:36;;;;;;;13.57;11.82;;;30.30;95.00;;;;;;5117646;27;20657;-74
2021/06/20 09:33:06;;;;;;;12.57;11.23;;;30.30;95.10;;;;;;5117617;27;20538;-75
2021/06/20 09:35:42;;;;;;;11.48;10.50;;;30.20;92.80;;;;;;5117796;27;20194;-75
2021/06/20 09:38:11;;;;;;;12.55;11.25;;;30.20;93.40;;;;;;5117478;27;20190;-75
2021/06/20 09:40:38;;;;;;;13.90;11.38;;;30.30;93.60;;;;;;5109239;28;20282;-75
2021/06/20 09:43:13;;;;;;;12.73;11.48;;;30.30;93.60;;;;;;5109237;28;20213;-75
2021/06/20 09:45:43;;;;;;;11.95;10.95;;;30.30;93.20;;;;;;5108522;28;20203;-75
2021/06/20 09:48:09;;;;;;;14.50;12.05;;;30.40;93.50;;;;;;5108833;28;21004;-75
2021/06/20 09:50:38;;;;;;;12.95;11.68;;;30.40;94.00;;;;;;5120457;27;20698;-76
2021/06/20 09:53:05;;;;;;;12.55;11.73;;;30.50;93.70;;;;;;5114277;27;21036;-75
2021/06/20 09:55:34;;;;;;;12.70;11.60;;;30.60;93.50;;;;;;5108819;28;20202;-76
2021/06/20 09:58:02;;;;;;;20.13;11.68;;;30.60;93.10;;;;;;5108864;28;20202;-75
2021/06/20 10:00:37;;;;;;;12.48;11.30;;;30.60;93.10;;;;;;5108963;28;20287;-75
2021/06/20 10:03:04;;;;;;;12.98;11.70;;;30.70;94.00;;;;;;5109234;28;20532;-75
2021/06/20 10:05:31;;;;;;;13.43;10.82;;;30.70;94.30;;;;;;5108890;28;20226;-76
2021/06/20 10:07:58;;;;;;;11.88;10.68;;;30.80;94.00;;;;;;5109275;28;20206;-75
2021/06/20 10:10:25;;;;;;;11.10;10.15;;;30.90;93.00;;;;;;5108653;28;20664;-75
2021/06/20 10:12:53;;;;;;;11.38;10.25;;;30.90;92.50;;;;;;5108399;28;20206;-75
2021/06/20 10:15:21;;;;;;;11.77;9.63;;;31.00;91.90;;;;;;5108747;28;20206;-76
2021/06/20 10:17:54;;;;;;;11.38;10.18;;;31.00;92.10;;;;;;5108481;28;20206;-75
2021/06/20 10:20:22;;;;;;;12.02;9.95;;;31.10;92.20;;;;;;5108524;28;20190;-75
2021/06/20 10:22:51;;;;;;;12.73;10.50;;;31.20;92.20;;;;;;5113376;27;20431;-75
2021/06/20 10:25:27;;;;;;;13.50;10.32;;;31.20;91.60;;;;;;5118690;27;20630;-77
2021/06/20 10:28:05;;;;;;;14.10;10.25;;;31.30;91.90;;;;;;5118141;27;20363;-75
2021/06/20 10:30:34;;;;;;;15.25;10.63;;;31.40;91.70;;;;;;5119256;27;20234;-76
2021/06/20 10:33:07;;;;;;;20.25;10.95;;;31.50;91.50;;;;;;5109133;28;20259;-75
2021/06/20 10:35:35;;;;;;;12.27;10.50;;;31.50;91.50;;;;;;5112402;27;20970;-77
2021/06/20 10:38:01;;;;;;;13.77;10.15;;;31.70;91.50;;;;;;5122781;27;20254;-77
2021/06/20 10:40:30;;;;;;;15.38;10.30;;;31.80;91.80;;;;;;5127016;27;20237;-75
2021/06/20 10:43:00;;;;;;;21.55;10.43;;;31.90;92.00;;;;;;5128366;27;20202;-75
2021/06/20 10:45:29;;;;;;;16.77;10.45;;;31.90;91.50;;;;;;5128298;27;20209;-74
2021/06/20 10:47:58;;;;;;;20.75;10.27;;;32.00;91.00;;;;;;5114581;27;20195;-74
2021/06/20 10:50:36;;;;;;;13.50;10.25;;;32.00;90.70;;;;;;5110342;27;20308;-75
2021/06/20 10:53:02;;;;;;;16.75;10.25;;;32.10;90.60;;;;;;5117722;27;20193;-76
2021/06/20 10:55:42;;;;;;;15.85;10.85;;;32.20;90.80;;;;;;5115965;27;20227;-79
2021/06/20 10:58:25;;;;;;;16.63;11.18;;;32.20;91.20;;;;;;5115856;27;20358;-75
2021/06/20 11:00:53;;;;;;;14.82;10.55;;;32.30;91.60;;;;;;5117110;27;20219;-75
2021/06/20 11:03:26;;;;;;;17.10;9.43;;;32.40;91.10;;;;;;5121122;27;20217;-75
2021/06/20 11:05:54;;;;;;;16.60;8.60;;;32.50;89.80;;;;;;5121211;27;20715;-76
2021/06/20 11:08:33;;;;;;;19.13;8.30;;;32.50;88.50;;;;;;5128032;27;20569;-75
2021/06/20 11:11:15;;;;;;;23.90;8.32;;;32.50;87.00;;;;;;5125846;27;20624;-75
2021/06/20 11:13:46;;;;;;;15.63;8.35;;;32.60;86.90;;;;;;5107160;28;20202;-75
2021/06/20 11:16:14;;;;;;;23.75;8.13;;;32.70;88.00;;;;;;5107342;28;20198;-75
2021/06/20 11:18:42;;;;;;;16.17;7.93;;;32.90;86.10;;;;;;5107206;28;20255;-75
2021/06/20 11:21:09;;;;;;;22.77;8.75;;;33.00;84.00;;;;;;5106878;28;20229;-75
2021/06/20 11:23:40;;;;;;;17.08;8.45;;;33.10;84.30;;;;;;5116360;27;20220;-75
2021/06/20 11:26:07;;;;;;;18.77;7.68;;;33.10;85.30;;;;;;5127315;27;20729;-75
2021/06/20 11:28:33;;;;;;;11.00;7.28;;;33.00;85.60;;;;;;5127348;27;20202;-75
2021/06/20 11:31:06;;;;;;;14.35;6.90;;;33.00;84.20;;;;;;5125398;27;20628;-75
2021/06/20 11:33:33;;;;;;;17.27;7.20;;;33.00;83.80;;;;;;5127537;27;20202;-75
2021/06/20 11:36:00;;;;;;;20.00;8.20;;;33.00;84.00;;;;;;5127178;27;20205;-75
2021/06/20 11:38:31;;;;;;;12.57;7.78;;;33.00;83.70;;;;;;5123860;27;20204;-75
2021/06/20 11:41:09;;;;;;;13.95;7.38;;;33.00;85.60;;;;;;5106375;28;20205;-75
2021/06/20 11:43:39;;;;;;;13.50;7.28;;;33.00;84.10;;;;;;5106866;28;20202;-76
2021/06/20 11:46:17;;;;;;;14.23;8.60;;;33.10;84.80;;;;;;5107031;28;20410;-76
2021/06/20 11:48:55;;;;;;;15.10;8.07;;;33.10;86.10;;;;;;5106952;28;20200;-75
2021/06/20 11:51:32;;;;;;;14.40;7.47;;;33.00;85.50;;;;;;5106399;28;20209;-75
2021/06/20 11:54:20;;;;;;;13.27;7.13;;;32.90;84.20;;;;;;5106231;28;20204;-75
2021/06/20 11:56:49;;;;;;;16.65;7.97;;;32.70;84.40;;;;;;5106790;28;20202;-75
2021/06/20 11:59:31;;;;;;;19.08;7.45;;;32.80;86.50;;;;;;5108436;28;20226;-76
2021/06/20 12:02:00;;;;;;;17.35;7.68;;;32.80;84.10;;;;;;5120924;28;20688;-76
2021/06/20 12:04:28;;;;;;;14.25;7.38;;;32.90;83.70;;;;;;5126523;28;20241;-75
2021/06/20 12:06:55;;;;;;;14.43;7.00;;;32.90;84.00;;;;;;5127260;27;20741;-76
2021/06/20 12:09:23;;;;;;;11.52;6.22;;;33.00;84.00;;;;;;5131046;27;20253;-76
2021/06/20 12:11:58;;;;;;;10.18;6.57;;;33.00;83.70;;;;;;5131135;27;20267;-76
2021/06/20 12:14:26;;;;;;;13.52;8.07;;;33.10;83.10;;;;;;5131233;27;20207;-75
2021/06/20 12:16:55;;;;;;;13.75;7.40;;;33.10;85.20;;;;;;5130589;27;20736;-75
2021/06/20 12:19:25;;;;;;;11.35;6.75;;;33.10;84.70;;;;;;5130999;27;20219;-75
2021/06/20 12:22:07;;;;;;;10.15;7.63;;;33.00;84.10;;;;;;5130809;27;20225;-75
2021/06/20 12:24:40;;;;;;;10.02;8.20;;;33.00;84.90;;;;;;5130913;27;20282;-75
2021/06/20 12:27:07;;;;;;;14.10;6.88;;;33.20;85.30;;;;;;5130960;27;20216;-75
2021/06/20 12:29:35;;;;;;;9.73;8.68;;;33.20;83.00;;;;;;5130834;27;20208;-75
2021/06/20 12:32:05;;;;;;;14.82;9.25;;;33.10;82.10;;;;;;5130996;27;20627;-75
2021/06/20 12:34:42;;;;;;;18.17;7.95;;;33.10;82.80;;;;;;5121162;27;20205;-76